Aérodrome :
LOGIN :

S'inscrire | Disclaimer

   EN    FR    IT 

 










Légende :    VFR   VFR Marginal   IFR   IFR Intensif   IFR Très Intensif
Visi : 
Plafond : 
>= 8 km
>= 3000ft
5 à 8 km
1000 à 3000 ft
1500m à 5 km
500 à 1000 ft
800 à 1500m
200 à 500 ft
< 800m
< 200 ft
Symboles :   Orages  Brouillard  Fortes neiges  Fortes précipitations  Vent > 20 kt
SIGMETs :   Divers  Orages  Givrage  Turbulence  Onde Orograph.  Cendres Volcan.






- Altitude de l'aérodrome : 156 ft
- Code IATA : MLN


GEML - Melilla

DERNIER METAR :
  • 300530Z VRB01KT CAVOK 14/08 Q1013

METARs EXPIRÉS :
  • 300500Z 30003KT 260V340 CAVOK 14/08 Q1013
  • 300430Z VRB02KT CAVOK 14/08 Q1013
  • 300400Z 31001KT CAVOK 14/08 Q1014
  • 300330Z AUTO 00000KT CAVOK 14/08 Q1014
  • 300300Z AUTO 26002KT CAVOK 14/08 Q1014

TAF TAF GEML
Valide du 30 à 03h jusqu'au 31 à 03h UTC


300200Z 3003/3103 08004KT 9999 FEW015 TX19/3014Z TN12/3006Z
BECMG 3006/3008 27010KT
BECMG 3019/3021 11004KT



MET'MAP, la Météo Aéronautique d'un coup d'oeil ! - Copyright ORBIFLY Décembre 2007 - Disclaimer

ORBIFLY MET'MAP TEAM :

Programmation & Développement : Alexandra Zaïnal
Sur une idée originale de : Baudouin d'Aumeries
Assistance à la programmation : Marc-Olivier Méhu
Soutien technique & logistique : Manuel Goepfert

Contact : metmap@orbifly.com




SOURCES & CREDITS :

   NOAA